Thunder radar more information blitzortung!


Rain radar more information rain snow radar


altri nostri siti meteo:

PomeziameteoStazione ufficiale di Pomezia

MeteopomeziaSito sulle condizioni meteo



Problemi di comunicazione, Vai direttamente al sito di Meteoalarm : www.meteoalarm.eu e controlla gli allarmi .

Report METAR

   
LIMP - Parma
Dati ricevuti: 30-01-2023 07:50
Sereno  
Sereno  
   Vento: W 7.4 km/h
Vento: W 7.4 km/h
Temperatura: -2°C
Temperatura Vento: -5°C
P.to Rugiada: -4°C
Umidita: 86%
Barometro: 1022 hPa
Visibilita: oltre 10 km
dettagli cloud: Sereno
LIMP 300650Z 24004KT 210V310 CAVOK M02/M04 Q1022
LIPE - Bologna
Dati ricevuti: 30-01-2023 08:20
Sereno  
Sereno  
   Vento: SW 11.1 km/h
Vento: SW 11.1 km/h
Temperatura: 0°C
Temperatura Vento: -3°C
P.to Rugiada: -3°C
Umidita: 80%
Barometro: 1022 hPa
Visibilita: oltre 10 km
dettagli cloud: Sereno
LIPE 300720Z 22006KT CAVOK M00/M03 Q1022
LIPO - Brescia/Montichi
Dati ricevuti: 30-01-2023 08:20
Nebbia, Poche nuvole  
Nebbia, Poche nuvole  
   Vento: Variabile 1.9 km/h
Vento: Variabile 1.9 km/h
Temperatura: -2°C
P.to Rugiada: -3°C
Umidita: 93%
Barometro: 1021 hPa
Nuvole: Poche nuvole
Visibilita: 5 km
dettagli cloud: Poche nuvole 18000 ft
LIPO 300720Z AUTO VRB01KT 4500 BR FEW180/// M02/M03 Q1021
LIPF - Ferrara
Dati ricevuti: 30-01-2023 07:55
Sereno  
Sereno  
   Vento: calma
Vento: calma
Temperatura: -2°C
P.to Rugiada: -3°C
Umidita: 93%
Barometro: 1022 hPa
Visibilita: oltre 10 km
dettagli cloud: Sereno
LIPF 300655Z 00000KT CAVOK M02/M03 Q1022
LIPL - Ghedi
Dati ricevuti: 30-01-2023 07:55
Nebbia, Parzialmente nuvoloso  
Nebbia, Parzialmente nuvoloso  
   Vento: W 7.4 km/h
Vento: W 7.4 km/h
Temperatura: -2°C
Temperatura Vento: -5°C
P.to Rugiada: -2°C
Umidita: 100%
Barometro: 1020 hPa
Nuvole: Parzialmente nuvoloso
Visibilita: 3 km
dettagli cloud: Parzialmente nuvoloso
LIPL 300655Z 24004KT 2800 BR NSC M02/M02 Q1020
LIVC - Monte Cimone
Dati ricevuti: 30-01-2023 07:55
  
  
   Vento: NO 24.1 km/h
Vento: NO 24.1 km/h
Temperatura: -4°C
Temperatura Vento: -11°C
P.to Rugiada: -8°C
Umidita: 74%
Barometro: 1016 hPa
LIVC 300655Z AUTO 32013KT //// M04/M08 Q1016
LIMS - Piacenza
Dati ricevuti: 30-01-2023 07:55
Sereno  
Sereno  
   Vento: West 9.3 km/h
Vento: West 9.3 km/h
Temperatura: -2°C
Temperatura Vento: -6°C
P.to Rugiada: -2°C
Umidita: 100%
Barometro: 1020 hPa
Visibilita: oltre 10 km
dettagli cloud: Sereno
LIMS 300655Z 26005KT 190V280 CAVOK M02/M02 Q1020
LIMT - Passo della Cisa
Dati ricevuti: 23-09-2019 13:55
DATI Obsoleti
Nebbia  
Nebbia  
   Vento: calma
Vento: calma
Temperatura: 10°C
P.to Rugiada: 10°C
Umidita: 100%
Barometro: 1014 hPa
Visibilita: 0 km
dettagli cloud: Coperto
LIMT 231155Z 00000KT 0000 FG VV/// 10/10 Q1014 RMK MON INVIS VAL INVIS VIS MIN 0000
LIPU - Padova
Dati ricevuti: 29-01-2023 15:50
DATI Obsoleti
Sereno  
Sereno  
   Vento: W 11.1 km/h
Vento: W 11.1 km/h
Temperatura: 8°C
Temperatura Vento: 6°C
P.to Rugiada: 0°C
Umidita: 57%
Barometro: 1023 hPa
Visibilita: oltre 10 km
dettagli cloud: Sereno
LIPU 291450Z 25006KT 210V290 CAVOK 08/M00 Q1023

Script sviluppato da  Saratoga-weather.org Adattato per il modello da  Weerstation Leuven

Strumentazione usata:

Stazione meteo
Davis VP2

Programma gestore dati meteo
WVIEW

Server per i dati meteo
Pc-WDS5

Provider
Pc-WDS5

Davis VP2

WVIEW

Pc-WDS5

Pc-WDS5